sensor_id;sensor_type;location;lat;lon;timestamp;temperature;humidity
6690;DHT22;3382;51.576;8.076;2022-08-25T00:01:18;22.90;99.90
6690;DHT22;3382;51.576;8.076;2022-08-25T00:03:45;22.80;99.90
6690;DHT22;3382;51.576;8.076;2022-08-25T00:06:11;22.80;99.90
6690;DHT22;3382;51.576;8.076;2022-08-25T00:08:37;22.80;99.90
6690;DHT22;3382;51.576;8.076;2022-08-25T00:11:09;22.70;99.90
6690;DHT22;3382;51.576;8.076;2022-08-25T00:13:40;22.70;99.90
6690;DHT22;3382;51.576;8.076;2022-08-25T00:16:08;22.70;99.90
6690;DHT22;3382;51.576;8.076;2022-08-25T00:18:34;22.60;99.90
6690;DHT22;3382;51.576;8.076;2022-08-25T00:21:01;22.60;99.90
6690;DHT22;3382;51.576;8.076;2022-08-25T00:23:27;22.60;99.90
6690;DHT22;3382;51.576;8.076;2022-08-25T00:25:53;22.60;99.90
6690;DHT22;3382;51.576;8.076;2022-08-25T00:28:19;22.60;99.90
6690;DHT22;3382;51.576;8.076;2022-08-25T00:30:46;22.60;99.90
6690;DHT22;3382;51.576;8.076;2022-08-25T00:33:11;22.60;99.90
6690;DHT22;3382;51.576;8.076;2022-08-25T00:35:39;22.60;99.90
6690;DHT22;3382;51.576;8.076;2022-08-25T00:38:08;22.60;99.90
6690;DHT22;3382;51.576;8.076;2022-08-25T00:40:35;22.50;99.90
6690;DHT22;3382;51.576;8.076;2022-08-25T00:43:01;22.50;99.90
6690;DHT22;3382;51.576;8.076;2022-08-25T00:45:27;22.50;99.90
6690;DHT22;3382;51.576;8.076;2022-08-25T00:47:53;22.50;99.90
6690;DHT22;3382;51.576;8.076;2022-08-25T00:50:20;22.50;99.90
6690;DHT22;3382;51.576;8.076;2022-08-25T00:52:50;22.40;99.90
6690;DHT22;3382;51.576;8.076;2022-08-25T00:55:20;22.40;99.90
6690;DHT22;3382;51.576;8.076;2022-08-25T00:58:03;22.40;99.90
6690;DHT22;3382;51.576;8.076;2022-08-25T01:00:35;22.40;99.90
6690;DHT22;3382;51.576;8.076;2022-08-25T01:03:03;22.40;99.90
6690;DHT22;3382;51.576;8.076;2022-08-25T01:05:29;22.40;99.90
6690;DHT22;3382;51.576;8.076;2022-08-25T01:07:55;22.30;99.90
6690;DHT22;3382;51.576;8.076;2022-08-25T01:10:23;22.40;99.90
6690;DHT22;3382;51.576;8.076;2022-08-25T01:12:51;22.30;99.90
6690;DHT22;3382;51.576;8.076;2022-08-25T01:15:21;22.30;99.90
6690;DHT22;3382;51.576;8.076;2022-08-25T01:17:54;22.30;99.90
6690;DHT22;3382;51.576;8.076;2022-08-25T01:20:23;22.30;99.90
6690;DHT22;3382;51.576;8.076;2022-08-25T01:22:50;22.30;99.90
6690;DHT22;3382;51.576;8.076;2022-08-25T01:28:24;22.20;99.90
6690;DHT22;3382;51.576;8.076;2022-08-25T01:30:49;22.20;99.90
6690;DHT22;3382;51.576;8.076;2022-08-25T01:33:17;22.20;99.90
6690;DHT22;3382;51.576;8.076;2022-08-25T01:35:43;22.10;99.90
6690;DHT22;3382;51.576;8.076;2022-08-25T01:38:09;22.10;99.90
6690;DHT22;3382;51.576;8.076;2022-08-25T01:40:36;22.10;99.90
6690;DHT22;3382;51.576;8.076;2022-08-25T01:43:15;22.10;99.90
6690;DHT22;3382;51.576;8.076;2022-08-25T01:45:46;22.10;99.90
6690;DHT22;3382;51.576;8.076;2022-08-25T01:48:13;22.10;99.90
6690;DHT22;3382;51.576;8.076;2022-08-25T01:50:40;22.00;99.90
6690;DHT22;3382;51.576;8.076;2022-08-25T01:53:12;22.00;99.90
6690;DHT22;3382;51.576;8.076;2022-08-25T01:55:41;22.00;99.90
6690;DHT22;3382;51.576;8.076;2022-08-25T01:58:22;22.00;99.90
6690;DHT22;3382;51.576;8.076;2022-08-25T02:00:49;21.90;99.90
6690;DHT22;3382;51.576;8.076;2022-08-25T02:03:16;21.90;99.90
6690;DHT22;3382;51.576;8.076;2022-08-25T02:05:43;21.80;99.90
6690;DHT22;3382;51.576;8.076;2022-08-25T02:08:09;21.80;99.90
6690;DHT22;3382;51.576;8.076;2022-08-25T02:10:36;21.70;99.90
6690;DHT22;3382;51.576;8.076;2022-08-25T02:13:01;21.70;99.90
6690;DHT22;3382;51.576;8.076;2022-08-25T02:15:27;21.70;99.90
6690;DHT22;3382;51.576;8.076;2022-08-25T02:17:53;21.60;99.90
6690;DHT22;3382;51.576;8.076;2022-08-25T02:20:18;21.60;99.90
6690;DHT22;3382;51.576;8.076;2022-08-25T02:22:44;21.60;99.90
6690;DHT22;3382;51.576;8.076;2022-08-25T02:25:10;21.60;99.90
6690;DHT22;3382;51.576;8.076;2022-08-25T02:27:35;21.60;99.90
6690;DHT22;3382;51.576;8.076;2022-08-25T02:30:03;21.50;99.90
6690;DHT22;3382;51.576;8.076;2022-08-25T02:32:29;21.50;99.90
6690;DHT22;3382;51.576;8.076;2022-08-25T02:34:55;21.50;99.90
6690;DHT22;3382;51.576;8.076;2022-08-25T02:37:21;21.50;99.90
6690;DHT22;3382;51.576;8.076;2022-08-25T02:39:47;21.40;99.90
6690;DHT22;3382;51.576;8.076;2022-08-25T02:42:13;21.40;99.90
6690;DHT22;3382;51.576;8.076;2022-08-25T02:44:39;21.40;99.90
6690;DHT22;3382;51.576;8.076;2022-08-25T02:47:04;21.40;99.90
6690;DHT22;3382;51.576;8.076;2022-08-25T02:49:30;21.30;99.90
6690;DHT22;3382;51.576;8.076;2022-08-25T02:51:56;21.20;99.90
6690;DHT22;3382;51.576;8.076;2022-08-25T02:54:25;21.20;99.90
6690;DHT22;3382;51.576;8.076;2022-08-25T02:56:51;21.10;99.90
6690;DHT22;3382;51.576;8.076;2022-08-25T02:59:17;21.10;99.90
6690;DHT22;3382;51.576;8.076;2022-08-25T03:01:43;21.10;99.90
6690;DHT22;3382;51.576;8.076;2022-08-25T03:04:09;21.10;99.90
6690;DHT22;3382;51.576;8.076;2022-08-25T03:06:35;21.00;99.90
6690;DHT22;3382;51.576;8.076;2022-08-25T03:09:00;21.00;99.90
6690;DHT22;3382;51.576;8.076;2022-08-25T03:11:26;20.90;99.90
6690;DHT22;3382;51.576;8.076;2022-08-25T03:13:53;20.80;99.90
6690;DHT22;3382;51.576;8.076;2022-08-25T03:16:19;20.80;99.90
6690;DHT22;3382;51.576;8.076;2022-08-25T03:18:45;20.80;99.90
6690;DHT22;3382;51.576;8.076;2022-08-25T03:21:11;20.80;99.90
6690;DHT22;3382;51.576;8.076;2022-08-25T03:23:38;20.70;99.90
6690;DHT22;3382;51.576;8.076;2022-08-25T03:26:04;20.70;99.90
6690;DHT22;3382;51.576;8.076;2022-08-25T03:28:49;20.70;99.90
6690;DHT22;3382;51.576;8.076;2022-08-25T03:31:14;20.70;99.90
6690;DHT22;3382;51.576;8.076;2022-08-25T03:33:40;20.80;99.90
6690;DHT22;3382;51.576;8.076;2022-08-25T03:36:07;20.80;99.90
6690;DHT22;3382;51.576;8.076;2022-08-25T03:38:33;20.80;99.90
6690;DHT22;3382;51.576;8.076;2022-08-25T03:41:10;20.80;99.90
6690;DHT22;3382;51.576;8.076;2022-08-25T03:43:36;20.70;99.90
6690;DHT22;3382;51.576;8.076;2022-08-25T03:46:02;20.70;99.90
6690;DHT22;3382;51.576;8.076;2022-08-25T03:48:27;20.80;99.90
6690;DHT22;3382;51.576;8.076;2022-08-25T03:50:53;20.90;99.90
6690;DHT22;3382;51.576;8.076;2022-08-25T03:53:19;21.00;99.90
6690;DHT22;3382;51.576;8.076;2022-08-25T03:55:45;21.10;99.90
6690;DHT22;3382;51.576;8.076;2022-08-25T03:58:10;21.10;99.90
6690;DHT22;3382;51.576;8.076;2022-08-25T04:00:36;21.20;99.90
6690;DHT22;3382;51.576;8.076;2022-08-25T04:03:02;21.20;99.90
6690;DHT22;3382;51.576;8.076;2022-08-25T04:05:28;21.40;99.90
6690;DHT22;3382;51.576;8.076;2022-08-25T04:07:53;21.50;99.90
6690;DHT22;3382;51.576;8.076;2022-08-25T04:10:20;21.60;99.90
6690;DHT22;3382;51.576;8.076;2022-08-25T04:12:45;21.70;99.90
6690;DHT22;3382;51.576;8.076;2022-08-25T04:15:13;21.80;99.90
6690;DHT22;3382;51.576;8.076;2022-08-25T04:17:39;22.00;99.90
6690;DHT22;3382;51.576;8.076;2022-08-25T04:20:07;22.10;99.90
6690;DHT22;3382;51.576;8.076;2022-08-25T04:22:33;22.20;99.90
6690;DHT22;3382;51.576;8.076;2022-08-25T04:24:59;22.40;99.90
6690;DHT22;3382;51.576;8.076;2022-08-25T04:27:25;22.50;99.90
6690;DHT22;3382;51.576;8.076;2022-08-25T04:29:50;22.50;99.90
6690;DHT22;3382;51.576;8.076;2022-08-25T04:32:16;22.60;99.90
6690;DHT22;3382;51.576;8.076;2022-08-25T04:34:41;22.70;99.90
6690;DHT22;3382;51.576;8.076;2022-08-25T04:37:08;22.70;99.90
6690;DHT22;3382;51.576;8.076;2022-08-25T04:39:33;22.60;99.90
6690;DHT22;3382;51.576;8.076;2022-08-25T04:42:00;22.50;99.90
6690;DHT22;3382;51.576;8.076;2022-08-25T04:44:26;22.30;99.90
6690;DHT22;3382;51.576;8.076;2022-08-25T04:46:52;22.20;99.90
6690;DHT22;3382;51.576;8.076;2022-08-25T04:49:17;22.00;99.90
6690;DHT22;3382;51.576;8.076;2022-08-25T04:51:44;22.00;99.90
6690;DHT22;3382;51.576;8.076;2022-08-25T04:54:12;22.00;99.90
6690;DHT22;3382;51.576;8.076;2022-08-25T04:56:41;22.00;99.90
6690;DHT22;3382;51.576;8.076;2022-08-25T04:59:09;22.00;99.90
6690;DHT22;3382;51.576;8.076;2022-08-25T05:01:35;21.90;99.90
6690;DHT22;3382;51.576;8.076;2022-08-25T05:04:04;21.80;99.90
6690;DHT22;3382;51.576;8.076;2022-08-25T05:06:31;21.60;99.90
6690;DHT22;3382;51.576;8.076;2022-08-25T05:08:57;21.50;99.90
6690;DHT22;3382;51.576;8.076;2022-08-25T05:11:24;21.40;99.90
6690;DHT22;3382;51.576;8.076;2022-08-25T05:13:52;21.30;99.90
6690;DHT22;3382;51.576;8.076;2022-08-25T05:16:20;21.30;99.90
6690;DHT22;3382;51.576;8.076;2022-08-25T05:18:46;21.30;99.90
6690;DHT22;3382;51.576;8.076;2022-08-25T05:21:14;21.30;99.90
6690;DHT22;3382;51.576;8.076;2022-08-25T05:23:41;21.40;99.90
6690;DHT22;3382;51.576;8.076;2022-08-25T05:26:12;21.40;99.90
6690;DHT22;3382;51.576;8.076;2022-08-25T05:28:39;21.40;99.90
6690;DHT22;3382;51.576;8.076;2022-08-25T05:31:06;21.40;99.90
6690;DHT22;3382;51.576;8.076;2022-08-25T05:33:33;21.50;99.90
6690;DHT22;3382;51.576;8.076;2022-08-25T05:35:59;21.70;99.90
6690;DHT22;3382;51.576;8.076;2022-08-25T05:38:24;21.80;99.90
6690;DHT22;3382;51.576;8.076;2022-08-25T05:41:03;21.90;99.90
6690;DHT22;3382;51.576;8.076;2022-08-25T05:43:29;22.10;99.90
6690;DHT22;3382;51.576;8.076;2022-08-25T05:45:56;22.30;99.90
6690;DHT22;3382;51.576;8.076;2022-08-25T05:48:22;22.40;99.90
6690;DHT22;3382;51.576;8.076;2022-08-25T05:50:56;22.60;99.90
6690;DHT22;3382;51.576;8.076;2022-08-25T05:53:23;22.70;99.90
6690;DHT22;3382;51.576;8.076;2022-08-25T05:55:50;22.80;99.90
6690;DHT22;3382;51.576;8.076;2022-08-25T05:58:16;22.80;99.90
6690;DHT22;3382;51.576;8.076;2022-08-25T06:00:42;22.80;99.90
6690;DHT22;3382;51.576;8.076;2022-08-25T06:03:08;22.80;99.90
6690;DHT22;3382;51.576;8.076;2022-08-25T06:05:34;22.70;99.90
6690;DHT22;3382;51.576;8.076;2022-08-25T06:07:59;22.70;99.90
6690;DHT22;3382;51.576;8.076;2022-08-25T06:10:26;22.70;99.90
6690;DHT22;3382;51.576;8.076;2022-08-25T06:12:52;22.70;99.90
6690;DHT22;3382;51.576;8.076;2022-08-25T06:15:20;22.70;99.90
6690;DHT22;3382;51.576;8.076;2022-08-25T06:17:47;22.70;99.90
6690;DHT22;3382;51.576;8.076;2022-08-25T06:20:18;22.70;99.90
6690;DHT22;3382;51.576;8.076;2022-08-25T06:22:44;22.70;99.90
6690;DHT22;3382;51.576;8.076;2022-08-25T06:25:12;22.80;99.90
6690;DHT22;3382;51.576;8.076;2022-08-25T06:27:38;22.80;99.90
6690;DHT22;3382;51.576;8.076;2022-08-25T06:30:06;22.80;99.90
6690;DHT22;3382;51.576;8.076;2022-08-25T06:32:37;22.80;99.90
6690;DHT22;3382;51.576;8.076;2022-08-25T06:35:04;22.80;99.90
6690;DHT22;3382;51.576;8.076;2022-08-25T06:37:30;22.90;99.90
6690;DHT22;3382;51.576;8.076;2022-08-25T06:39:56;22.90;99.90
6690;DHT22;3382;51.576;8.076;2022-08-25T06:42:22;22.90;99.90
6690;DHT22;3382;51.576;8.076;2022-08-25T06:44:47;23.00;99.90
6690;DHT22;3382;51.576;8.076;2022-08-25T06:47:13;23.00;99.90
6690;DHT22;3382;51.576;8.076;2022-08-25T06:49:43;23.10;99.90
6690;DHT22;3382;51.576;8.076;2022-08-25T06:52:10;23.10;99.90
6690;DHT22;3382;51.576;8.076;2022-08-25T06:54:35;23.20;99.90
6690;DHT22;3382;51.576;8.076;2022-08-25T06:57:02;23.20;99.90
6690;DHT22;3382;51.576;8.076;2022-08-25T06:59:28;23.30;99.90
6690;DHT22;3382;51.576;8.076;2022-08-25T07:01:54;23.40;99.90
6690;DHT22;3382;51.576;8.076;2022-08-25T07:04:19;23.50;99.90
6690;DHT22;3382;51.576;8.076;2022-08-25T07:06:46;23.50;99.90
6690;DHT22;3382;51.576;8.076;2022-08-25T07:09:12;23.60;99.90
6690;DHT22;3382;51.576;8.076;2022-08-25T07:11:42;23.70;99.90
6690;DHT22;3382;51.576;8.076;2022-08-25T07:14:09;23.90;99.90
6690;DHT22;3382;51.576;8.076;2022-08-25T07:16:37;23.90;99.90
6690;DHT22;3382;51.576;8.076;2022-08-25T07:19:04;24.00;99.90
6690;DHT22;3382;51.576;8.076;2022-08-25T07:21:31;24.10;99.90
6690;DHT22;3382;51.576;8.076;2022-08-25T07:23:58;24.20;99.90
6690;DHT22;3382;51.576;8.076;2022-08-25T07:26:28;24.30;99.90
6690;DHT22;3382;51.576;8.076;2022-08-25T07:28:54;24.40;99.90
6690;DHT22;3382;51.576;8.076;2022-08-25T07:31:20;24.50;99.90
6690;DHT22;3382;51.576;8.076;2022-08-25T07:33:46;24.60;99.90
6690;DHT22;3382;51.576;8.076;2022-08-25T07:36:31;24.70;99.90
6690;DHT22;3382;51.576;8.076;2022-08-25T07:38:58;24.80;99.90
6690;DHT22;3382;51.576;8.076;2022-08-25T07:41:25;24.90;99.90
6690;DHT22;3382;51.576;8.076;2022-08-25T07:43:51;24.90;99.90
6690;DHT22;3382;51.576;8.076;2022-08-25T07:46:17;25.00;99.90
6690;DHT22;3382;51.576;8.076;2022-08-25T07:48:43;25.10;99.90
6690;DHT22;3382;51.576;8.076;2022-08-25T07:51:11;25.20;99.90
6690;DHT22;3382;51.576;8.076;2022-08-25T07:53:38;25.20;99.90
6690;DHT22;3382;51.576;8.076;2022-08-25T07:56:12;25.40;99.90
6690;DHT22;3382;51.576;8.076;2022-08-25T07:58:39;25.40;99.90
6690;DHT22;3382;51.576;8.076;2022-08-25T08:01:06;25.60;99.90
6690;DHT22;3382;51.576;8.076;2022-08-25T08:03:32;25.70;99.90
6690;DHT22;3382;51.576;8.076;2022-08-25T08:05:59;25.70;99.90
6690;DHT22;3382;51.576;8.076;2022-08-25T08:08:26;25.90;99.90
6690;DHT22;3382;51.576;8.076;2022-08-25T08:10:52;26.00;99.90
6690;DHT22;3382;51.576;8.076;2022-08-25T08:13:17;26.10;99.90
6690;DHT22;3382;51.576;8.076;2022-08-25T08:15:44;26.20;99.90
6690;DHT22;3382;51.576;8.076;2022-08-25T08:18:10;26.40;99.90
6690;DHT22;3382;51.576;8.076;2022-08-25T08:20:36;26.50;99.90
6690;DHT22;3382;51.576;8.076;2022-08-25T08:23:02;26.70;99.90
6690;DHT22;3382;51.576;8.076;2022-08-25T08:25:28;26.90;99.90
6690;DHT22;3382;51.576;8.076;2022-08-25T08:27:54;27.00;99.90
6690;DHT22;3382;51.576;8.076;2022-08-25T08:30:20;27.10;99.90
6690;DHT22;3382;51.576;8.076;2022-08-25T08:32:46;27.20;99.90
6690;DHT22;3382;51.576;8.076;2022-08-25T08:35:16;27.30;99.90
6690;DHT22;3382;51.576;8.076;2022-08-25T08:37:46;27.50;99.90
6690;DHT22;3382;51.576;8.076;2022-08-25T08:40:18;27.60;99.90
6690;DHT22;3382;51.576;8.076;2022-08-25T08:42:55;27.80;99.90
6690;DHT22;3382;51.576;8.076;2022-08-25T08:45:47;28.00;99.90
6690;DHT22;3382;51.576;8.076;2022-08-25T08:51:32;28.40;99.90
6690;DHT22;3382;51.576;8.076;2022-08-25T08:54:12;28.40;99.90
6690;DHT22;3382;51.576;8.076;2022-08-25T08:56:41;28.60;99.90
6690;DHT22;3382;51.576;8.076;2022-08-25T08:59:12;28.70;99.90
6690;DHT22;3382;51.576;8.076;2022-08-25T09:01:52;28.80;99.90
6690;DHT22;3382;51.576;8.076;2022-08-25T09:04:36;29.00;99.90
6690;DHT22;3382;51.576;8.076;2022-08-25T09:07:21;29.10;99.90
6690;DHT22;3382;51.576;8.076;2022-08-25T09:09:48;29.30;99.90
6690;DHT22;3382;51.576;8.076;2022-08-25T09:19:05;29.70;99.90
6690;DHT22;3382;51.576;8.076;2022-08-25T09:21:13;29.80;99.90
6690;DHT22;3382;51.576;8.076;2022-08-25T09:27:13;30.00;99.90
6690;DHT22;3382;51.576;8.076;2022-08-25T09:29:21;30.20;99.90
6690;DHT22;3382;51.576;8.076;2022-08-25T09:31:48;30.20;99.90
6690;DHT22;3382;51.576;8.076;2022-08-25T09:34:22;30.40;99.90
6690;DHT22;3382;51.576;8.076;2022-08-25T09:36:49;30.50;99.90
6690;DHT22;3382;51.576;8.076;2022-08-25T09:39:17;30.40;99.90
6690;DHT22;3382;51.576;8.076;2022-08-25T09:41:56;30.40;99.90
6690;DHT22;3382;51.576;8.076;2022-08-25T09:44:31;30.40;99.90
6690;DHT22;3382;51.576;8.076;2022-08-25T09:47:20;30.50;99.90
6690;DHT22;3382;51.576;8.076;2022-08-25T09:52:34;30.70;99.60
6690;DHT22;3382;51.576;8.076;2022-08-25T09:55:25;30.70;99.40
6690;DHT22;3382;51.576;8.076;2022-08-25T09:57:53;30.80;98.40
6690;DHT22;3382;51.576;8.076;2022-08-25T10:00:31;30.80;98.60
6690;DHT22;3382;51.576;8.076;2022-08-25T10:03:30;30.70;98.80
6690;DHT22;3382;51.576;8.076;2022-08-25T10:06:04;30.70;99.90
6690;DHT22;3382;51.576;8.076;2022-08-25T10:11:12;30.80;98.20
6690;DHT22;3382;51.576;8.076;2022-08-25T10:13:43;30.90;98.20
6690;DHT22;3382;51.576;8.076;2022-08-25T10:16:22;31.00;98.10
6690;DHT22;3382;51.576;8.076;2022-08-25T10:21:25;31.10;96.40
6690;DHT22;3382;51.576;8.076;2022-08-25T10:23:52;31.10;96.70
6690;DHT22;3382;51.576;8.076;2022-08-25T10:26:54;31.30;96.70
6690;DHT22;3382;51.576;8.076;2022-08-25T10:31:55;31.50;96.10
6690;DHT22;3382;51.576;8.076;2022-08-25T10:39:46;31.40;95.30
6690;DHT22;3382;51.576;8.076;2022-08-25T10:47:59;31.40;94.50
6690;DHT22;3382;51.576;8.076;2022-08-25T10:50:50;31.40;94.80
6690;DHT22;3382;51.576;8.076;2022-08-25T10:53:26;31.40;94.40
6690;DHT22;3382;51.576;8.076;2022-08-25T11:01:31;31.60;93.10
6690;DHT22;3382;51.576;8.076;2022-08-25T11:04:09;31.60;92.70
6690;DHT22;3382;51.576;8.076;2022-08-25T11:06:47;31.70;93.20
6690;DHT22;3382;51.576;8.076;2022-08-25T11:09:19;31.70;91.70
6690;DHT22;3382;51.576;8.076;2022-08-25T11:11:53;31.70;91.70
6690;DHT22;3382;51.576;8.076;2022-08-25T11:14:28;31.70;90.60
6690;DHT22;3382;51.576;8.076;2022-08-25T11:19:31;31.40;92.00
6690;DHT22;3382;51.576;8.076;2022-08-25T11:24:53;31.40;91.00
6690;DHT22;3382;51.576;8.076;2022-08-25T11:27:30;31.50;91.20
6690;DHT22;3382;51.576;8.076;2022-08-25T11:30:12;31.50;90.80
6690;DHT22;3382;51.576;8.076;2022-08-25T11:32:38;31.40;90.40
6690;DHT22;3382;51.576;8.076;2022-08-25T11:35:11;31.40;90.70
6690;DHT22;3382;51.576;8.076;2022-08-25T11:46:30;31.40;90.50
6690;DHT22;3382;51.576;8.076;2022-08-25T11:51:47;31.20;90.00
6690;DHT22;3382;51.576;8.076;2022-08-25T12:02:50;31.20;89.90
6690;DHT22;3382;51.576;8.076;2022-08-25T12:10:25;31.60;89.80
6690;DHT22;3382;51.576;8.076;2022-08-25T12:23:42;31.50;86.60
6690;DHT22;3382;51.576;8.076;2022-08-25T12:29:25;31.80;86.80
6690;DHT22;3382;51.576;8.076;2022-08-25T12:43:25;31.40;84.10
6690;DHT22;3382;51.576;8.076;2022-08-25T12:54:36;31.60;84.70
6690;DHT22;3382;51.576;8.076;2022-08-25T13:00:20;31.60;83.10
6690;DHT22;3382;51.576;8.076;2022-08-25T13:10:55;31.70;83.90
6690;DHT22;3382;51.576;8.076;2022-08-25T13:13:46;31.80;81.20
6690;DHT22;3382;51.576;8.076;2022-08-25T13:16:21;31.70;81.70
6690;DHT22;3382;51.576;8.076;2022-08-25T13:18:48;31.90;86.80
6690;DHT22;3382;51.576;8.076;2022-08-25T13:21:32;32.00;85.20
6690;DHT22;3382;51.576;8.076;2022-08-25T13:24:00;31.90;82.00
6690;DHT22;3382;51.576;8.076;2022-08-25T13:26:33;31.80;80.40
6690;DHT22;3382;51.576;8.076;2022-08-25T13:29:13;31.80;80.70
6690;DHT22;3382;51.576;8.076;2022-08-25T13:32:12;31.70;79.80
6690;DHT22;3382;51.576;8.076;2022-08-25T13:34:39;31.60;79.70
6690;DHT22;3382;51.576;8.076;2022-08-25T13:37:14;31.50;79.70
6690;DHT22;3382;51.576;8.076;2022-08-25T13:40:12;31.50;80.00
6690;DHT22;3382;51.576;8.076;2022-08-25T13:42:42;31.60;81.90
6690;DHT22;3382;51.576;8.076;2022-08-25T13:45:11;31.70;80.70
6690;DHT22;3382;51.576;8.076;2022-08-25T13:47:39;31.80;83.30
6690;DHT22;3382;51.576;8.076;2022-08-25T13:53:00;31.70;79.10
6690;DHT22;3382;51.576;8.076;2022-08-25T13:58:14;31.70;77.90
6690;DHT22;3382;51.576;8.076;2022-08-25T14:01:06;31.60;77.40
6690;DHT22;3382;51.576;8.076;2022-08-25T14:06:09;31.60;76.60
6690;DHT22;3382;51.576;8.076;2022-08-25T14:08:37;31.60;77.00
6690;DHT22;3382;51.576;8.076;2022-08-25T14:13:32;31.70;76.70
6690;DHT22;3382;51.576;8.076;2022-08-25T14:16:17;31.60;75.70
6690;DHT22;3382;51.576;8.076;2022-08-25T14:18:51;31.50;76.10
6690;DHT22;3382;51.576;8.076;2022-08-25T14:21:21;31.70;79.00
6690;DHT22;3382;51.576;8.076;2022-08-25T14:23:47;31.60;77.30
6690;DHT22;3382;51.576;8.076;2022-08-25T14:26:13;31.60;76.80
6690;DHT22;3382;51.576;8.076;2022-08-25T14:28:40;31.70;78.00
6690;DHT22;3382;51.576;8.076;2022-08-25T14:31:17;31.70;76.10
6690;DHT22;3382;51.576;8.076;2022-08-25T14:33:52;31.70;76.40
6690;DHT22;3382;51.576;8.076;2022-08-25T14:36:19;31.60;74.30
6690;DHT22;3382;51.576;8.076;2022-08-25T14:38:44;31.60;74.60
6690;DHT22;3382;51.576;8.076;2022-08-25T14:41:10;31.60;75.30
6690;DHT22;3382;51.576;8.076;2022-08-25T14:43:36;31.50;74.10
6690;DHT22;3382;51.576;8.076;2022-08-25T14:46:16;31.50;75.60
6690;DHT22;3382;51.576;8.076;2022-08-25T14:48:44;31.50;75.50
6690;DHT22;3382;51.576;8.076;2022-08-25T14:51:12;31.40;75.40
6690;DHT22;3382;51.576;8.076;2022-08-25T14:53:39;31.50;76.30
6690;DHT22;3382;51.576;8.076;2022-08-25T14:56:05;31.40;75.90
6690;DHT22;3382;51.576;8.076;2022-08-25T14:58:31;31.40;75.10
6690;DHT22;3382;51.576;8.076;2022-08-25T15:00:57;31.50;74.40
6690;DHT22;3382;51.576;8.076;2022-08-25T15:03:31;31.60;75.10
6690;DHT22;3382;51.576;8.076;2022-08-25T15:05:59;31.70;74.30
6690;DHT22;3382;51.576;8.076;2022-08-25T15:08:25;31.60;75.00
6690;DHT22;3382;51.576;8.076;2022-08-25T15:11:09;31.40;75.40
6690;DHT22;3382;51.576;8.076;2022-08-25T15:13:35;31.40;74.80
6690;DHT22;3382;51.576;8.076;2022-08-25T15:16:01;31.40;75.20
6690;DHT22;3382;51.576;8.076;2022-08-25T15:18:27;31.40;73.70
6690;DHT22;3382;51.576;8.076;2022-08-25T15:20:52;31.40;73.50
6690;DHT22;3382;51.576;8.076;2022-08-25T15:23:18;31.30;72.70
6690;DHT22;3382;51.576;8.076;2022-08-25T15:25:46;31.30;73.10
6690;DHT22;3382;51.576;8.076;2022-08-25T15:28:12;31.30;74.10
6690;DHT22;3382;51.576;8.076;2022-08-25T15:30:39;31.10;72.70
6690;DHT22;3382;51.576;8.076;2022-08-25T15:33:05;31.10;72.90
6690;DHT22;3382;51.576;8.076;2022-08-25T15:35:31;31.10;73.20
6690;DHT22;3382;51.576;8.076;2022-08-25T15:37:58;31.10;73.10
6690;DHT22;3382;51.576;8.076;2022-08-25T15:40:24;31.10;73.00
6690;DHT22;3382;51.576;8.076;2022-08-25T15:42:50;31.30;74.20
6690;DHT22;3382;51.576;8.076;2022-08-25T15:45:15;31.40;74.30
6690;DHT22;3382;51.576;8.076;2022-08-25T15:47:41;31.70;76.70
6690;DHT22;3382;51.576;8.076;2022-08-25T15:50:10;31.80;76.80
6690;DHT22;3382;51.576;8.076;2022-08-25T15:52:36;31.80;75.70
6690;DHT22;3382;51.576;8.076;2022-08-25T15:55:02;31.80;74.60
6690;DHT22;3382;51.576;8.076;2022-08-25T15:57:28;31.70;73.40
6690;DHT22;3382;51.576;8.076;2022-08-25T15:59:53;31.70;73.20
6690;DHT22;3382;51.576;8.076;2022-08-25T16:02:20;31.60;72.70
6690;DHT22;3382;51.576;8.076;2022-08-25T16:04:46;31.60;72.80
6690;DHT22;3382;51.576;8.076;2022-08-25T16:07:11;31.60;73.10
6690;DHT22;3382;51.576;8.076;2022-08-25T16:09:37;31.70;73.20
6690;DHT22;3382;51.576;8.076;2022-08-25T16:12:03;31.70;74.80
6690;DHT22;3382;51.576;8.076;2022-08-25T16:14:29;31.90;76.00
6690;DHT22;3382;51.576;8.076;2022-08-25T16:16:55;32.00;76.20
6690;DHT22;3382;51.576;8.076;2022-08-25T16:19:21;32.00;78.10
6690;DHT22;3382;51.576;8.076;2022-08-25T16:21:47;32.10;79.80
6690;DHT22;3382;51.576;8.076;2022-08-25T16:24:12;32.20;80.60
6690;DHT22;3382;51.576;8.076;2022-08-25T16:26:38;32.20;80.50
6690;DHT22;3382;51.576;8.076;2022-08-25T16:29:08;32.20;80.00
6690;DHT22;3382;51.576;8.076;2022-08-25T16:31:34;32.00;76.60
6690;DHT22;3382;51.576;8.076;2022-08-25T16:34:00;31.90;75.00
6690;DHT22;3382;51.576;8.076;2022-08-25T16:36:26;31.80;74.30
6690;DHT22;3382;51.576;8.076;2022-08-25T16:38:53;31.70;73.80
6690;DHT22;3382;51.576;8.076;2022-08-25T16:41:24;31.70;73.40
6690;DHT22;3382;51.576;8.076;2022-08-25T16:43:50;31.80;73.90
6690;DHT22;3382;51.576;8.076;2022-08-25T16:46:17;31.80;72.70
6690;DHT22;3382;51.576;8.076;2022-08-25T16:48:43;31.70;72.80
6690;DHT22;3382;51.576;8.076;2022-08-25T16:51:11;31.80;73.70
6690;DHT22;3382;51.576;8.076;2022-08-25T16:53:37;31.80;73.60
6690;DHT22;3382;51.576;8.076;2022-08-25T16:56:21;31.60;72.40
6690;DHT22;3382;51.576;8.076;2022-08-25T16:58:56;31.40;72.30
6690;DHT22;3382;51.576;8.076;2022-08-25T17:01:23;31.40;73.30
6690;DHT22;3382;51.576;8.076;2022-08-25T17:03:53;31.50;73.50
6690;DHT22;3382;51.576;8.076;2022-08-25T17:06:21;31.50;73.30
6690;DHT22;3382;51.576;8.076;2022-08-25T17:08:47;31.40;73.00
6690;DHT22;3382;51.576;8.076;2022-08-25T17:11:24;31.30;73.20
6690;DHT22;3382;51.576;8.076;2022-08-25T17:13:54;31.30;73.10
6690;DHT22;3382;51.576;8.076;2022-08-25T17:16:22;31.30;73.20
6690;DHT22;3382;51.576;8.076;2022-08-25T17:18:50;31.40;73.40
6690;DHT22;3382;51.576;8.076;2022-08-25T17:21:18;31.60;81.20
6690;DHT22;3382;51.576;8.076;2022-08-25T17:23:44;31.90;86.60
6690;DHT22;3382;51.576;8.076;2022-08-25T17:26:13;32.00;85.10
6690;DHT22;3382;51.576;8.076;2022-08-25T17:28:39;31.90;83.30
6690;DHT22;3382;51.576;8.076;2022-08-25T17:31:06;31.80;82.00
6690;DHT22;3382;51.576;8.076;2022-08-25T17:33:32;31.80;83.00
6690;DHT22;3382;51.576;8.076;2022-08-25T17:35:58;31.90;85.90
6690;DHT22;3382;51.576;8.076;2022-08-25T17:38:26;32.00;85.40
6690;DHT22;3382;51.576;8.076;2022-08-25T17:40:57;32.00;86.10
6690;DHT22;3382;51.576;8.076;2022-08-25T17:43:27;31.90;84.40
6690;DHT22;3382;51.576;8.076;2022-08-25T17:45:53;31.90;84.60
6690;DHT22;3382;51.576;8.076;2022-08-25T17:48:22;31.90;84.50
6690;DHT22;3382;51.576;8.076;2022-08-25T17:50:47;31.80;83.20
6690;DHT22;3382;51.576;8.076;2022-08-25T17:53:13;31.80;82.10
6690;DHT22;3382;51.576;8.076;2022-08-25T17:55:40;31.70;81.10
6690;DHT22;3382;51.576;8.076;2022-08-25T17:58:07;31.60;80.60
6690;DHT22;3382;51.576;8.076;2022-08-25T18:00:34;31.60;79.90
6690;DHT22;3382;51.576;8.076;2022-08-25T18:03:00;31.50;78.70
6690;DHT22;3382;51.576;8.076;2022-08-25T18:05:28;31.40;78.40
6690;DHT22;3382;51.576;8.076;2022-08-25T18:07:54;31.40;77.70
6690;DHT22;3382;51.576;8.076;2022-08-25T18:10:21;31.30;76.80
6690;DHT22;3382;51.576;8.076;2022-08-25T18:12:47;31.30;76.30
6690;DHT22;3382;51.576;8.076;2022-08-25T18:15:13;31.10;75.70
6690;DHT22;3382;51.576;8.076;2022-08-25T18:17:40;31.10;75.50
6690;DHT22;3382;51.576;8.076;2022-08-25T18:20:08;31.10;75.50
6690;DHT22;3382;51.576;8.076;2022-08-25T18:22:35;31.10;75.60